Lake Oke South End current weather conditions

sailwx.info

Wind from 021 at 5 knots gusting 6

Air temperature 17.8° C
Water temperature -7999.0° C

Last reported at 2019-Dec-06 04:45 UTC.
Time now 2019-Dec-06 05:26 UTC

Location: N 26°49' W 080°47'.
View on Google Maps.

See reports from other nearby stations

  
Tides and Currents Weather Stations Pressure Air Temp Water Temp Dewpoint Dewpoint Depression Visibility Wind Speed Wind Dir Waves Ship Positions
date/time (UTC)wind fromknots sea level pressurealtimeterstation pressurevisibilityair tempwater tempwave heightnotes
2019-Dec-06 04:45 021 5 gusting 6 17.8-7999.0
2019-Dec-06 04:30 021 5 gusting 6 17.8-7999.0
2019-Dec-06 04:15 012 5 gusting 6 17.9-7999.0
2019-Dec-06 03:45 016 5 gusting 6 17.9-7999.0
2019-Dec-06 03:30 015 6 gusting 7 18.0-7999.0
2019-Dec-06 03:15 015 6 gusting 7 18.0-7999.0
2019-Dec-06 03:00 018 6 gusting 7 18.1-7999.0
2019-Dec-06 02:45 017 6 gusting 8 18.1-7999.0
2019-Dec-06 02:30 018 7 gusting 8 18.1-7999.0
2019-Dec-06 02:15 019 7 gusting 8 18.2-7999.0
2019-Dec-06 01:45 022 7 gusting 9 18.3-7999.0
2019-Dec-06 01:30 023 8 gusting 9 18.4-7999.0
2019-Dec-06 01:15 019 8 gusting 9 18.3-7999.0
2019-Dec-06 00:45 022 8 gusting 9 18.4-7999.0
2019-Dec-06 00:30 017 9 gusting 10 18.4-7999.0
2019-Dec-06 00:15 016 9 gusting 11 18.4-7999.0
2019-Dec-05 23:45 018 10 gusting 11 18.7-7999.0
2019-Dec-05 23:30 008 10 gusting 12 18.8-7999.0
2019-Dec-05 23:15 287 10 gusting 12 18.9-7999.0
2019-Dec-05 22:45 032 2 gusting 5 18.6-7999.0
2019-Dec-05 22:30 045 0 gusting 1 18.6-7999.0
2019-Dec-05 22:15 031 0 gusting 1 18.9-7999.0
2019-Dec-05 21:45 299 3 gusting 4 18.6-7999.0
2019-Dec-05 21:30 291 3 gusting 3 18.6-7999.0
2019-Dec-05 21:15 285 3 gusting 4 18.6-7999.0
2019-Dec-05 21:00 278 3 gusting 3 18.6-7999.0
2019-Dec-05 20:45 286 3 gusting 3 18.5-7999.0
2019-Dec-05 20:30 300 3 gusting 4 18.5-7999.0
2019-Dec-05 20:15 299 4 gusting 4 18.6-7999.0
2019-Dec-05 20:00 311 3 gusting 4 18.7-7999.0
2019-Dec-05 19:45 320 3 gusting 4 18.5-7999.0
2019-Dec-05 19:30 324 3 gusting 4 18.2-7999.0
2019-Dec-05 19:15 334 4 gusting 5 18.0-7999.0
2019-Dec-05 19:00 327 4 gusting 5 17.9-7999.0
2019-Dec-05 18:45 274 4 gusting 5 17.6-7999.0
2019-Dec-05 18:30 271 4 gusting 5 17.4-7999.0
2019-Dec-05 18:15 234 4 gusting 5 17.3-7999.0
2019-Dec-05 18:00 229 4 gusting 5 17.2-7999.0
2019-Dec-05 17:45 207 5 gusting 6 17.3-7999.0
2019-Dec-05 17:30 090 5 gusting 7 17.3-7999.0
2019-Dec-05 17:15 102 6 gusting 8 17.0-7999.0
2019-Dec-05 17:00 069 7 gusting 9 16.8-7999.0
2019-Dec-05 16:45 024 8 gusting 10 16.7-7999.0
2019-Dec-05 16:30 007 9 gusting 11 16.6-7999.0
2019-Dec-05 16:15 007 11 gusting 12 16.5-7999.0
2019-Dec-05 16:00 046 11 gusting 13 16.4-7999.0
2019-Dec-05 15:45 091 12 gusting 14 16.4-7999.0
2019-Dec-05 15:30 030 11 gusting 13 16.4-7999.0
2019-Dec-05 15:15 015 11 gusting 13 16.2-7999.0
2019-Dec-05 14:45 006 12 gusting 14 16.0-7999.0
2019-Dec-05 14:30 098 14 gusting 15 15.9-7999.0
2019-Dec-05 14:00 177 14 gusting 16 15.8-7999.0
2019-Dec-05 13:45 299 15 gusting 17 15.7-7999.0
2019-Dec-05 13:30 331 15 gusting 17 15.7-7999.0
2019-Dec-05 13:15 346 15 gusting 17 15.7-7999.0
2019-Dec-05 12:45 338 14 gusting 16 15.7-7999.0
2019-Dec-05 12:30 345 13 gusting 15 15.6-7999.0
2019-Dec-05 12:15 343 13 gusting 15 15.6-7999.0
2019-Dec-05 12:00 341 13 gusting 15 15.6-7999.0
2019-Dec-05 11:45 341 12 gusting 15 15.7-7999.0
2019-Dec-05 11:30 342 12 gusting 13 15.6-7999.0
2019-Dec-05 11:15 341 12 gusting 14 15.6-7999.0
2019-Dec-05 11:00 340 12 gusting 14 15.6-7999.0
2019-Dec-05 10:45 342 12 gusting 14 15.6-7999.0
2019-Dec-05 10:30 337 11 gusting 13 15.6-7999.0
2019-Dec-05 10:15 333 11 gusting 13 15.6-7999.0
2019-Dec-05 10:00 333 10 gusting 12 15.6-7999.0
2019-Dec-05 09:45 331 10 gusting 12 15.7-7999.0
2019-Dec-05 09:30 332 10 gusting 11 15.7-7999.0
2019-Dec-05 09:15 333 11 gusting 12 15.7-7999.0
2019-Dec-05 08:45 324 12 gusting 14 15.8-7999.0
2019-Dec-05 08:30 324 12 gusting 14 15.9-7999.0
2019-Dec-05 08:15 322 11 gusting 12 15.9-7999.0
2019-Dec-05 07:45 323 10 gusting 12 15.8-7999.0
2019-Dec-05 07:30 319 12 gusting 13 16.0-7999.0
2019-Dec-05 07:15 315 11 gusting 13 16.2-7999.0
2019-Dec-05 06:45 309 11 gusting 12 16.3-7999.0
2019-Dec-05 06:30 303 11 gusting 12 16.4-7999.0
2019-Dec-05 06:15 299 12 gusting 13 16.2-7999.0
2019-Dec-05 06:00 296 12 gusting 14 16.2-7999.0
2019-Dec-05 05:45 294 14 gusting 15 16.4-7999.0
2019-Dec-05 05:30 297 13 gusting 14 16.6-7999.0
2019-Dec-05 05:15 291 13 gusting 15 16.7-7999.0
2019-Dec-05 05:00 291 13 gusting 15 16.8-7999.0
2019-Dec-05 04:45 295 13 gusting 15 17.1-7999.0
2019-Dec-05 04:30 297 14 gusting 16 17.3-7999.0
2019-Dec-05 04:15 302 13 gusting 15 17.5-7999.0
2019-Dec-05 03:45 305 11 gusting 12 17.7-7999.0
2019-Dec-05 03:30 308 10 gusting 11 17.9-7999.0
2019-Dec-05 03:15 311 10 gusting 11 18.0-7999.0
2019-Dec-05 02:45 311 12 gusting 14 18.3-7999.0
2019-Dec-05 02:30 313 12 gusting 13 18.2-7999.0
2019-Dec-05 02:15 315 11 gusting 13 18.2-7999.0
2019-Dec-05 01:45 317 11 gusting 12 18.5-7999.0
2019-Dec-05 01:30 320 11 gusting 13 18.6-7999.0
2019-Dec-05 01:15 323 11 gusting 12 18.8-7999.0
2019-Dec-05 01:00 323 11 gusting 13 19.0-7999.0
2019-Dec-05 00:45 326 11 gusting 12 19.1-7999.0
2019-Dec-05 00:30 322 10 gusting 12 19.3-7999.0
2019-Dec-05 00:15 317 9 gusting 10 19.4-7999.0
2019-Dec-05 00:00 304 9 gusting 10 19.6-7999.0
2019-Dec-04 23:45 302 9 gusting 10 19.7-7999.0
2019-Dec-04 23:30 307 9 gusting 10 19.8-7999.0
2019-Dec-04 23:15 307 10 gusting 11 19.8-7999.0
2019-Dec-04 23:00 308 10 gusting 12 19.8-7999.0
2019-Dec-04 22:45 308 10 gusting 11 19.9-7999.0
2019-Dec-04 22:30 309 10 gusting 12 20.0-7999.0
2019-Dec-04 22:15 317 9 gusting 11 20.1-7999.0
2019-Dec-04 21:45 317 8 gusting 10 20.1-7999.0
2019-Dec-04 21:30 321 8 gusting 10 20.0-7999.0
2019-Dec-04 21:15 324 9 gusting 11 20.1-7999.0
2019-Dec-04 21:00 308 6 gusting 9 19.8-7999.0
2019-Dec-04 20:45 139 5 gusting 6 19.3-7999.0
2019-Dec-04 20:30 094 5 gusting 6 19.3-7999.0
2019-Dec-04 20:15 034 5 gusting 6 19.2-7999.0
2019-Dec-04 19:45 015 7 gusting 8 18.6-7999.0
2019-Dec-04 19:30 079 7 gusting 9 18.3-7999.0
2019-Dec-04 19:15 341 7 gusting 9 18.1-7999.0
2019-Dec-04 18:45 333 6 gusting 8 17.5-7999.0
2019-Dec-04 18:30 330 6 gusting 7 17.2-7999.0
2019-Dec-04 18:15 238 6 gusting 9 17.0-7999.0
2019-Dec-04 18:00 171 6 gusting 8 16.6-7999.0
2019-Dec-04 17:45 148 7 gusting 10 16.4-7999.0
2019-Dec-04 17:30 302 8 gusting 10 16.2-7999.0
2019-Dec-04 17:15 332 8 gusting 11 15.9-7999.0
2019-Dec-04 17:00 330 10 gusting 11 16.2-7999.0
2019-Dec-04 16:45 330 9 gusting 11 16.2-7999.0
2019-Dec-04 16:30 336 9 gusting 11 16.3-7999.0
2019-Dec-04 16:15 334 9 gusting 11 16.5-7999.0
2019-Dec-04 15:45 323 9 gusting 10 16.4-7999.0
2019-Dec-04 15:30 312 9 gusting 11 16.4-7999.0
2019-Dec-04 15:15 296 7 gusting 11 16.2-7999.0
2019-Dec-04 14:45 220 5 gusting 7 15.4-7999.0
2019-Dec-04 14:30 209 5 gusting 6 15.2-7999.0
2019-Dec-04 14:15 205 5 gusting 6 15.2-7999.0
2019-Dec-04 13:45 219 6 gusting 7 15.2-7999.0
2019-Dec-04 13:30 218 6 gusting 6 15.3-7999.0
2019-Dec-04 13:15 221 5 gusting 6 15.2-7999.0
2019-Dec-04 12:45 223 4 gusting 5 15.0-7999.0
2019-Dec-04 12:30 231 4 gusting 5 14.7-7999.0
2019-Dec-04 12:15 241 4 gusting 5 14.6-7999.0
2019-Dec-04 12:00 238 4 gusting 5 14.5-7999.0
2019-Dec-04 11:45 241 4 gusting 4 14.4-7999.0
2019-Dec-04 11:30 238 4 gusting 5 14.3-7999.0
2019-Dec-04 11:15 230 4 gusting 5 14.3-7999.0
2019-Dec-04 10:45 220 4 gusting 5 14.2-7999.0
2019-Dec-04 10:30 214 5 gusting 6 14.2-7999.0
2019-Dec-04 10:15 211 4 gusting 6 14.1-7999.0
2019-Dec-04 10:00 212 6 gusting 7 14.1-7999.0
2019-Dec-04 09:45 202 6 gusting 7 14.0-7999.0
2019-Dec-04 09:30 209 5 gusting 7 14.0-7999.0
2019-Dec-04 09:15 222 5 gusting 7 14.0-7999.0
2019-Dec-04 09:00 211 7 gusting 8 13.8-7999.0
2019-Dec-04 08:45 202 7 gusting 9 13.7-7999.0
2019-Dec-04 08:30 202 9 gusting 10 13.6-7999.0
2019-Dec-04 08:15 202 9 gusting 11 13.4-7999.0
2019-Dec-04 08:00 211 9 gusting 10 13.9-7999.0
2019-Dec-04 07:45 225 8 gusting 9 14.0-7999.0
2019-Dec-04 07:30 236 8 gusting 9 14.1-7999.0
2019-Dec-04 07:15 248 8 gusting 9 14.4-7999.0
2019-Dec-04 07:00 266 9 gusting 10 14.7-7999.0
2019-Dec-04 06:45 277 8 gusting 9 14.8-7999.0
2019-Dec-04 06:30 274 8 gusting 9 14.8-7999.0
2019-Dec-04 06:15 262 7 gusting 8 14.8-7999.0
2019-Dec-04 06:00 256 6 gusting 7 14.9-7999.0
2019-Dec-04 05:45 245 7 gusting 8 15.1-7999.0
2019-Dec-04 05:30 236 7 gusting 8 15.6-7999.0
2019-Dec-04 05:15 248 6 gusting 8 15.9-7999.0
2019-Dec-04 05:00 265 6 gusting 7 16.1-7999.0